createdAt,value
2023-04-27T00:00:39.193Z,2.05
2023-04-27T00:03:08.764Z,1.33
2023-04-27T00:05:39.395Z,2.00
2023-04-27T00:08:07.727Z,1.65
2023-04-27T00:10:36.358Z,1.55
2023-04-27T00:13:04.396Z,1.33
2023-04-27T00:15:32.641Z,1.77
2023-04-27T00:18:01.665Z,1.60
2023-04-27T00:20:32.047Z,1.80
2023-04-27T00:23:00.023Z,1.88
2023-04-27T00:25:28.143Z,2.08
2023-04-27T00:27:56.283Z,1.40
2023-04-27T00:30:26.139Z,1.92
2023-04-27T00:32:54.811Z,2.03
2023-04-27T00:35:23.334Z,1.90
2023-04-27T00:37:54.691Z,1.38
2023-04-27T00:40:22.992Z,1.85
2023-04-27T00:42:51.170Z,1.42
2023-04-27T00:45:19.273Z,1.27
2023-04-27T00:47:47.349Z,1.30
2023-04-27T00:50:16.235Z,1.23
2023-04-27T00:52:45.375Z,1.20
2023-04-27T00:55:14.802Z,1.42
2023-04-27T00:57:43.000Z,1.38
2023-04-27T01:00:13.288Z,1.40
2023-04-27T01:02:42.348Z,1.10
2023-04-27T01:05:11.055Z,1.20
2023-04-27T01:07:39.784Z,1.23
2023-04-27T01:10:08.980Z,1.63
2023-04-27T01:12:38.382Z,1.58
2023-04-27T01:15:08.451Z,1.58
2023-04-27T01:17:36.590Z,2.13
2023-04-27T01:20:10.511Z,1.73
2023-04-27T01:22:39.013Z,2.00
2023-04-27T01:25:09.658Z,1.67
2023-04-27T01:27:37.644Z,1.42
2023-04-27T01:30:06.781Z,1.33
2023-04-27T01:32:34.788Z,1.20
2023-04-27T01:35:03.006Z,1.38
2023-04-27T01:37:31.127Z,1.08
2023-04-27T01:39:59.141Z,1.73
2023-04-27T01:42:28.493Z,1.40
2023-04-27T01:44:56.661Z,1.40
2023-04-27T01:47:24.695Z,1.13
2023-04-27T01:49:52.692Z,1.33
2023-04-27T01:52:20.704Z,1.55
2023-04-27T01:54:48.769Z,1.40
2023-04-27T01:57:17.641Z,1.35
2023-04-27T01:59:46.967Z,1.55
2023-04-27T02:02:15.036Z,1.70
2023-04-27T02:04:45.249Z,1.25
2023-04-27T02:07:13.581Z,1.65
2023-04-27T02:09:41.780Z,2.30
2023-04-27T02:12:11.702Z,1.90
2023-04-27T02:14:39.782Z,1.40
2023-04-27T02:17:09.069Z,1.60
2023-04-27T02:19:37.378Z,1.58
2023-04-27T02:22:06.851Z,1.08
2023-04-27T02:24:36.760Z,1.17
2023-04-27T02:27:04.934Z,1.90
2023-04-27T02:29:33.438Z,1.75
2023-04-27T02:32:01.937Z,1.17
2023-04-27T02:34:31.264Z,1.23
2023-04-27T02:36:59.930Z,2.42
2023-04-27T02:39:27.897Z,1.52
2023-04-27T02:41:56.600Z,1.95
2023-04-27T02:44:24.700Z,1.40
2023-04-27T02:46:53.089Z,1.70
2023-04-27T02:49:23.358Z,1.30
2023-04-27T02:51:52.668Z,1.40
2023-04-27T02:54:20.956Z,1.75
2023-04-27T02:56:48.956Z,0.82
2023-04-27T02:59:17.024Z,1.05
2023-04-27T03:01:45.143Z,1.30
2023-04-27T03:04:15.167Z,1.33
2023-04-27T03:06:43.388Z,1.92
2023-04-27T03:09:13.361Z,1.40
2023-04-27T03:11:41.559Z,1.90
2023-04-27T03:14:09.579Z,1.73
2023-04-27T03:16:37.815Z,1.20
2023-04-27T03:19:06.261Z,1.60
2023-04-27T03:21:34.263Z,1.15
2023-04-27T03:24:02.985Z,1.42
2023-04-27T03:26:32.753Z,1.50
2023-04-27T03:29:00.959Z,1.38
2023-04-27T03:31:30.056Z,1.27
2023-04-27T03:33:58.248Z,1.30
2023-04-27T03:36:27.003Z,1.30
2023-04-27T03:38:55.048Z,0.85
2023-04-27T03:41:23.126Z,1.70
2023-04-27T03:43:53.479Z,1.50
2023-04-27T03:46:21.696Z,1.63
2023-04-27T03:48:50.440Z,1.50
2023-04-27T03:51:19.202Z,1.15
2023-04-27T03:53:48.204Z,1.20
2023-04-27T03:56:16.312Z,1.70
2023-04-27T03:58:44.314Z,1.20
2023-04-27T04:01:19.778Z,1.50
2023-04-27T04:03:48.608Z,1.40
2023-04-27T04:06:16.922Z,1.42
2023-04-27T04:08:46.785Z,1.88
2023-04-27T04:11:14.918Z,2.13
2023-04-27T04:13:44.143Z,1.10
2023-04-27T04:16:12.165Z,2.53
2023-04-27T04:18:42.018Z,1.50
2023-04-27T04:21:11.150Z,1.33
2023-04-27T04:23:41.169Z,1.85
2023-04-27T04:26:10.060Z,1.65
2023-04-27T04:28:38.951Z,1.00
2023-04-27T04:31:09.532Z,1.60
2023-04-27T04:33:37.641Z,1.45
2023-04-27T04:36:07.730Z,1.70
2023-04-27T04:38:35.862Z,1.83
2023-04-27T04:41:04.000Z,2.38
2023-04-27T04:43:34.391Z,2.35
2023-04-27T04:46:06.511Z,1.92
2023-04-27T04:48:35.626Z,2.38
2023-04-27T04:51:07.211Z,2.35
2023-04-27T04:53:36.014Z,2.67
2023-04-27T04:56:10.281Z,2.70
2023-04-27T04:58:38.406Z,2.45
2023-04-27T05:01:06.865Z,2.25
2023-04-27T05:03:36.052Z,2.30
2023-04-27T05:06:04.275Z,2.10
2023-04-27T05:08:33.648Z,2.30
2023-04-27T05:11:01.701Z,1.90
2023-04-27T05:13:29.760Z,1.92
2023-04-27T05:15:57.799Z,2.95
2023-04-27T05:18:25.836Z,2.65
2023-04-27T05:20:53.850Z,3.00
2023-04-27T05:23:21.870Z,3.00
2023-04-27T05:25:51.747Z,3.30
2023-04-27T05:28:19.824Z,2.78
2023-04-27T05:30:47.839Z,2.55
2023-04-27T05:33:16.112Z,3.40
2023-04-27T05:35:44.085Z,3.25
2023-04-27T05:38:15.073Z,2.78
2023-04-27T05:40:43.066Z,4.32
2023-04-27T05:43:12.568Z,5.18
2023-04-27T05:45:41.729Z,4.07
2023-04-27T05:48:09.798Z,4.82
2023-04-27T05:50:37.863Z,3.00
2023-04-27T05:53:06.081Z,3.10
2023-04-27T05:55:34.114Z,2.53
2023-04-27T05:58:08.732Z,2.92
2023-04-27T06:00:38.891Z,3.10
2023-04-27T06:03:07.170Z,2.65
2023-04-27T06:05:35.642Z,3.05
2023-04-27T06:08:03.813Z,4.85
2023-04-27T06:10:31.850Z,4.88
2023-04-27T06:12:59.877Z,2.88
2023-04-27T06:15:27.860Z,2.03
2023-04-27T06:17:57.333Z,2.15
2023-04-27T06:20:25.476Z,2.58
2023-04-27T06:22:53.472Z,1.60
2023-04-27T06:25:21.851Z,1.80
2023-04-27T06:27:50.770Z,2.23
2023-04-27T06:30:18.788Z,2.03
2023-04-27T06:32:47.006Z,1.80
2023-04-27T06:35:16.600Z,2.20
2023-04-27T06:37:45.174Z,2.90
2023-04-27T06:40:13.701Z,4.97
2023-04-27T06:42:41.677Z,4.90
2023-04-27T06:45:10.728Z,4.37
2023-04-27T06:47:38.808Z,2.87
2023-04-27T06:50:07.541Z,2.63
2023-04-27T06:52:36.843Z,1.73
2023-04-27T06:55:05.286Z,2.40
2023-04-27T06:57:33.237Z,2.00
2023-04-27T07:00:01.466Z,2.83
2023-04-27T07:02:29.473Z,2.10
2023-04-27T07:04:57.633Z,1.43
2023-04-27T07:07:25.836Z,1.97
2023-04-27T07:09:55.184Z,2.23
2023-04-27T07:12:23.207Z,2.40
2023-04-27T07:14:51.512Z,1.77
2023-04-27T07:17:20.169Z,1.80
2023-04-27T07:19:48.308Z,2.87
2023-04-27T07:22:16.616Z,2.00
2023-04-27T07:24:44.640Z,1.80
2023-04-27T07:27:15.074Z,1.80
2023-04-27T07:29:43.544Z,1.63
2023-04-27T07:32:11.597Z,1.70
2023-04-27T07:34:52.003Z,2.33
2023-04-27T07:37:21.187Z,2.53
2023-04-27T07:39:50.149Z,2.50
2023-04-27T07:42:19.812Z,2.90
2023-04-27T07:44:47.839Z,2.30
2023-04-27T07:47:15.862Z,1.60
2023-04-27T07:49:45.560Z,1.90
2023-04-27T07:52:14.129Z,2.30
2023-04-27T07:54:42.407Z,1.53
2023-04-27T07:57:11.641Z,1.40
2023-04-27T07:59:41.355Z,2.00
2023-04-27T08:02:18.999Z,2.47
2023-04-27T08:04:48.606Z,1.90
2023-04-27T08:07:17.724Z,1.87
2023-04-27T08:09:46.168Z,1.87
2023-04-27T08:12:14.164Z,1.93
2023-04-27T08:14:43.516Z,1.93
2023-04-27T08:17:11.878Z,1.50
2023-04-27T08:19:40.225Z,3.63
2023-04-27T08:22:08.614Z,2.13
2023-04-27T08:24:37.503Z,2.40
2023-04-27T08:27:06.906Z,2.07
2023-04-27T08:29:35.217Z,1.50
2023-04-27T08:32:05.753Z,1.80
2023-04-27T08:34:33.865Z,1.87
2023-04-27T08:37:03.323Z,1.67
2023-04-27T08:39:31.405Z,2.33
2023-04-27T08:41:59.581Z,2.20
2023-04-27T08:44:27.572Z,2.70
2023-04-27T08:46:55.561Z,2.37
2023-04-27T08:49:24.917Z,1.90
2023-04-27T08:51:52.883Z,2.43
2023-04-27T08:54:21.694Z,2.10
2023-04-27T08:56:49.735Z,1.57
2023-04-27T08:59:18.065Z,2.03
2023-04-27T09:01:48.667Z,2.33
2023-04-27T09:04:17.867Z,2.60
2023-04-27T09:06:49.061Z,2.10
2023-04-27T09:09:24.316Z,2.23
2023-04-27T09:11:52.379Z,2.27
2023-04-27T09:14:23.039Z,2.27
2023-04-27T09:17:00.530Z,2.13
2023-04-27T09:19:29.713Z,2.23
2023-04-27T09:22:07.311Z,2.33
2023-04-27T09:24:35.929Z,2.13
2023-04-27T09:27:05.031Z,2.37
2023-04-27T09:29:35.944Z,2.43
2023-04-27T09:32:16.683Z,2.30
2023-04-27T09:34:45.418Z,1.83
2023-04-27T09:37:15.810Z,1.87
2023-04-27T09:39:44.254Z,2.70
2023-04-27T09:42:13.436Z,2.70
2023-04-27T09:44:41.460Z,1.87
2023-04-27T09:47:10.423Z,2.30
2023-04-27T09:49:38.917Z,2.83
2023-04-27T09:52:07.161Z,2.97
2023-04-27T09:54:38.026Z,2.60
2023-04-27T09:57:18.450Z,2.50
2023-04-27T10:00:02.971Z,1.93
2023-04-27T10:02:52.501Z,3.30
2023-04-27T10:05:42.835Z,2.53
2023-04-27T10:08:11.871Z,2.70
2023-04-27T10:10:50.818Z,3.50
2023-04-27T10:13:23.823Z,3.00
2023-04-27T10:15:52.574Z,2.60
2023-04-27T10:18:28.552Z,2.40
2023-04-27T10:21:11.197Z,2.60
2023-04-27T10:23:48.430Z,3.27
2023-04-27T10:26:24.954Z,2.40
2023-04-27T10:29:05.478Z,2.97
2023-04-27T10:31:35.202Z,2.90
2023-04-27T10:34:08.505Z,3.20
2023-04-27T10:36:37.779Z,2.73
2023-04-27T10:39:17.010Z,2.87
2023-04-27T10:41:54.117Z,3.10
2023-04-27T10:44:28.386Z,3.43
2023-04-27T10:46:59.618Z,3.37
2023-04-27T10:49:29.298Z,2.90
2023-04-27T10:51:59.877Z,2.90
2023-04-27T10:54:29.289Z,3.70
2023-04-27T10:57:05.844Z,3.70
2023-04-27T10:59:34.930Z,3.30
2023-04-27T11:02:04.151Z,3.40
2023-04-27T11:04:42.387Z,2.50
2023-04-27T11:07:12.426Z,2.80
2023-04-27T11:09:43.442Z,3.77
2023-04-27T11:12:14.651Z,2.83
2023-04-27T11:14:42.752Z,3.47
2023-04-27T11:17:11.771Z,2.70
2023-04-27T11:19:47.347Z,2.83
2023-04-27T11:22:17.810Z,3.23
2023-04-27T11:24:50.660Z,3.50
2023-04-27T11:27:22.342Z,2.53
2023-04-27T11:29:50.459Z,3.00
2023-04-27T11:32:21.835Z,3.20
2023-04-27T11:34:54.766Z,2.90
2023-04-27T11:37:25.476Z,2.97
2023-04-27T11:39:54.249Z,3.63
2023-04-27T11:42:25.433Z,3.17
2023-04-27T11:44:55.089Z,3.27
2023-04-27T11:47:23.588Z,3.43
2023-04-27T11:49:52.895Z,3.27
2023-04-27T11:52:20.930Z,2.53
2023-04-27T11:54:50.265Z,2.77
2023-04-27T11:57:18.891Z,3.50
2023-04-27T11:59:48.274Z,2.57
2023-04-27T12:02:17.087Z,3.77
2023-04-27T12:04:45.514Z,3.20
2023-04-27T12:07:13.687Z,3.07
2023-04-27T12:09:42.068Z,2.43
2023-04-27T12:12:10.585Z,3.60
2023-04-27T12:14:38.718Z,3.10
2023-04-27T12:17:08.245Z,3.47
2023-04-27T12:19:37.250Z,2.97
2023-04-27T12:22:05.703Z,3.60
2023-04-27T12:24:33.889Z,3.57
2023-04-27T12:27:03.301Z,3.13
2023-04-27T12:29:32.202Z,3.63
2023-04-27T12:32:00.884Z,3.47
2023-04-27T12:34:30.353Z,3.27
2023-04-27T12:36:58.464Z,2.57
2023-04-27T12:39:26.810Z,3.10
2023-04-27T12:41:55.547Z,3.10
2023-04-27T12:44:23.623Z,3.10
2023-04-27T12:46:51.999Z,2.97
2023-04-27T12:49:20.246Z,3.80
2023-04-27T12:51:51.923Z,3.10
2023-04-27T12:54:20.226Z,2.80
2023-04-27T12:56:48.337Z,3.10
2023-04-27T12:59:17.034Z,3.10
2023-04-27T13:01:45.875Z,3.70
2023-04-27T13:04:20.649Z,3.20
2023-04-27T13:06:50.832Z,3.63
2023-04-27T13:09:19.115Z,4.03
2023-04-27T13:11:47.287Z,3.53
2023-04-27T13:14:15.750Z,4.10
2023-04-27T13:16:44.130Z,3.33
2023-04-27T13:19:12.284Z,3.40
2023-04-27T13:21:40.573Z,3.83
2023-04-27T13:24:10.541Z,3.40
2023-04-27T13:26:38.814Z,3.90
2023-04-27T13:29:06.846Z,3.60
2023-04-27T13:31:35.008Z,3.67
2023-04-27T13:34:04.783Z,4.17
2023-04-27T13:36:32.834Z,3.80
2023-04-27T13:39:01.949Z,4.00
2023-04-27T13:41:32.276Z,4.23
2023-04-27T13:44:00.772Z,3.40
2023-04-27T13:46:28.818Z,4.17
2023-04-27T13:48:57.226Z,3.70
2023-04-27T13:51:26.618Z,4.10
2023-04-27T13:53:54.587Z,4.30
2023-04-27T13:56:22.674Z,3.93
2023-04-27T13:58:52.172Z,3.27
2023-04-27T14:01:20.268Z,3.20
2023-04-27T14:03:48.525Z,3.67
2023-04-27T14:06:16.725Z,3.77
2023-04-27T14:08:44.676Z,3.47
2023-04-27T14:11:14.195Z,3.83
2023-04-27T14:13:42.239Z,4.23
2023-04-27T14:16:11.738Z,3.27
2023-04-27T14:18:39.787Z,4.20
2023-04-27T14:21:07.861Z,3.30
2023-04-27T14:23:36.008Z,3.80
2023-04-27T14:26:05.073Z,3.80
2023-04-27T14:28:33.071Z,3.40
2023-04-27T14:31:01.370Z,3.70
2023-04-27T14:33:31.761Z,3.60
2023-04-27T14:36:00.286Z,3.43
2023-04-27T14:38:28.417Z,3.20
2023-04-27T14:40:56.568Z,3.03
2023-04-27T14:43:24.820Z,3.57
2023-04-27T14:45:59.370Z,3.10
2023-04-27T14:48:34.498Z,3.90
2023-04-27T14:51:03.043Z,3.90
2023-04-27T14:53:31.112Z,3.40
2023-04-27T14:55:59.111Z,4.03
2023-04-27T14:58:27.546Z,4.20
2023-04-27T15:00:55.630Z,3.70
2023-04-27T15:03:23.855Z,4.33
2023-04-27T15:05:53.322Z,3.23
2023-04-27T15:08:21.412Z,3.87
2023-04-27T15:10:49.572Z,4.30
2023-04-27T15:13:17.734Z,4.57
2023-04-27T15:15:46.103Z,3.63
2023-04-27T15:18:14.211Z,4.30
2023-04-27T15:20:43.614Z,4.50
2023-04-27T15:23:13.918Z,4.93
2023-04-27T15:25:43.924Z,4.37
2023-04-27T15:28:11.929Z,4.10
2023-04-27T15:30:40.004Z,4.17
2023-04-27T15:33:10.127Z,4.77
2023-04-27T15:35:40.233Z,4.00
2023-04-27T15:38:10.276Z,4.70
2023-04-27T15:40:40.410Z,4.03
2023-04-27T15:43:08.619Z,4.77
2023-04-27T15:45:36.621Z,3.97
2023-04-27T15:48:06.715Z,4.00
2023-04-27T15:50:34.863Z,3.70
2023-04-27T15:53:02.803Z,4.23
2023-04-27T15:55:30.962Z,4.87
2023-04-27T15:58:00.361Z,4.87
2023-04-27T16:00:28.791Z,4.37
2023-04-27T16:02:57.070Z,4.60
2023-04-27T16:05:25.183Z,4.00
2023-04-27T16:07:53.489Z,4.37
2023-04-27T16:10:21.502Z,4.30
2023-04-27T16:12:50.276Z,4.07
2023-04-27T16:15:19.890Z,4.10
2023-04-27T16:17:48.057Z,3.40
2023-04-27T16:20:16.338Z,5.27
2023-04-27T16:22:44.379Z,3.77
2023-04-27T16:25:12.484Z,4.40
2023-04-27T16:27:40.901Z,2.90
2023-04-27T16:30:10.199Z,5.80
2023-04-27T16:32:40.630Z,3.20
2023-04-27T16:35:09.552Z,3.20
2023-04-27T16:37:38.273Z,4.40
2023-04-27T16:40:08.382Z,3.80
2023-04-27T16:42:36.533Z,4.50
2023-04-27T16:45:05.034Z,4.40
2023-04-27T16:47:33.702Z,5.43
2023-04-27T16:50:03.195Z,8.47
2023-04-27T16:52:31.680Z,8.27
2023-04-27T16:54:59.736Z,6.60
2023-04-27T16:57:27.910Z,6.70
2023-04-27T16:59:56.476Z,8.27
2023-04-27T17:02:25.851Z,5.67
2023-04-27T17:04:54.832Z,5.77
2023-04-27T17:07:25.499Z,5.43
2023-04-27T17:09:54.240Z,5.77
2023-04-27T17:12:22.608Z,5.27
2023-04-27T17:14:52.209Z,6.67
2023-04-27T17:17:20.430Z,5.77
2023-04-27T17:19:48.580Z,5.50
2023-04-27T17:22:16.631Z,4.83
2023-04-27T17:24:46.302Z,4.83
2023-04-27T17:27:14.360Z,5.70
2023-04-27T17:29:42.498Z,6.80
2023-04-27T17:32:10.799Z,5.00
2023-04-27T17:34:40.408Z,4.13
2023-04-27T17:37:10.511Z,5.37
2023-04-27T17:39:38.856Z,5.10
2023-04-27T17:42:12.675Z,5.03
2023-04-27T17:44:42.405Z,5.53
2023-04-27T17:47:11.013Z,4.87
2023-04-27T17:49:39.102Z,4.77
2023-04-27T17:52:07.383Z,4.63
2023-04-27T17:54:35.550Z,4.80
2023-04-27T17:57:03.959Z,4.90
2023-04-27T17:59:33.566Z,5.60
2023-04-27T18:02:01.649Z,6.17
2023-04-27T18:04:30.195Z,6.17
2023-04-27T18:06:58.464Z,4.90
2023-04-27T18:09:28.456Z,5.27
2023-04-27T18:11:57.515Z,5.63
2023-04-27T18:14:25.635Z,5.30
2023-04-27T18:16:55.274Z,6.50
2023-04-27T18:19:24.693Z,5.77
2023-04-27T18:21:52.719Z,5.70
2023-04-27T18:24:21.039Z,6.40
2023-04-27T18:26:49.480Z,5.70
2023-04-27T18:29:17.712Z,5.07
2023-04-27T18:31:46.302Z,5.10
2023-04-27T18:34:16.053Z,4.87
2023-04-27T18:36:45.743Z,5.53
2023-04-27T18:39:14.222Z,6.97
2023-04-27T18:41:42.678Z,5.80
2023-04-27T18:44:10.990Z,5.23
2023-04-27T18:46:39.006Z,7.43
2023-04-27T18:49:07.399Z,5.53
2023-04-27T18:51:36.834Z,6.27
2023-04-27T18:56:35.416Z,5.27
2023-04-27T18:59:03.636Z,5.07
2023-04-27T19:01:33.400Z,4.50
2023-04-27T19:04:02.258Z,4.87
2023-04-27T19:06:31.323Z,4.60
2023-04-27T19:09:01.238Z,4.33
2023-04-27T19:11:30.402Z,3.90
2023-04-27T19:13:58.746Z,3.80
2023-04-27T19:16:27.101Z,4.10
2023-04-27T19:18:55.340Z,4.23
2023-04-27T19:21:23.659Z,4.33
2023-04-27T19:23:52.282Z,4.80
2023-04-27T19:26:22.413Z,4.60
2023-04-27T19:28:50.500Z,4.77
2023-04-27T19:31:18.803Z,4.70
2023-04-27T19:33:54.737Z,4.90
2023-04-27T19:36:24.076Z,5.47
2023-04-27T19:38:53.164Z,4.57
2023-04-27T19:41:22.558Z,5.33
2023-04-27T19:43:50.630Z,5.23
2023-04-27T19:46:18.714Z,5.47
2023-04-27T19:48:46.751Z,4.93
2023-04-27T19:51:15.059Z,5.27
2023-04-27T19:53:43.086Z,6.33
2023-04-27T19:56:11.078Z,5.53
2023-04-27T19:58:41.692Z,4.40
2023-04-27T20:01:12.321Z,4.20
2023-04-27T20:03:41.624Z,4.30
2023-04-27T20:06:10.478Z,3.80
2023-04-27T20:08:38.638Z,4.07
2023-04-27T20:11:07.828Z,5.27
2023-04-27T20:13:35.856Z,4.60
2023-04-27T20:16:05.480Z,5.33
2023-04-27T20:18:33.833Z,5.03
2023-04-27T20:21:01.923Z,7.10
2023-04-27T20:23:30.586Z,6.20
2023-04-27T20:25:58.636Z,5.10
2023-04-27T20:28:28.047Z,6.10
2023-04-27T20:30:57.895Z,6.10
2023-04-27T20:33:27.270Z,6.00
2023-04-27T20:36:03.525Z,5.70
2023-04-27T20:38:34.682Z,5.53
2023-04-27T20:41:03.687Z,5.50
2023-04-27T20:43:32.682Z,5.43
2023-04-27T20:46:00.826Z,5.57
2023-04-27T20:48:30.262Z,6.60
2023-04-27T20:50:58.307Z,5.07
2023-04-27T20:53:27.056Z,5.77
2023-04-27T20:55:55.104Z,4.70
2023-04-27T20:58:23.575Z,5.27
2023-04-27T21:00:53.043Z,4.60
2023-04-27T21:03:21.293Z,4.37
2023-04-27T21:05:51.985Z,3.90
2023-04-27T21:08:20.092Z,4.37
2023-04-27T21:10:48.255Z,3.83
2023-04-27T21:13:16.295Z,4.50
2023-04-27T21:15:44.484Z,4.30
2023-04-27T21:18:19.179Z,4.13
2023-04-27T21:20:58.386Z,4.63
2023-04-27T21:23:26.739Z,4.27
2023-04-27T21:25:55.091Z,4.60
2023-04-27T21:28:23.212Z,3.67
2023-04-27T21:30:51.402Z,5.30
2023-04-27T21:33:19.518Z,5.60
2023-04-27T21:35:47.554Z,7.18
2023-04-27T21:38:17.605Z,5.18
2023-04-27T21:40:45.885Z,6.03
2023-04-27T21:43:13.969Z,4.90
2023-04-27T21:45:42.040Z,5.40
2023-04-27T21:48:10.236Z,6.15
2023-04-27T21:50:38.339Z,5.38
2023-04-27T21:53:06.461Z,5.13
2023-04-27T21:55:35.835Z,5.40
2023-04-27T21:58:03.953Z,4.93
2023-04-27T22:00:32.179Z,5.40
2023-04-27T22:03:00.688Z,4.60
2023-04-27T22:05:29.383Z,5.35
2023-04-27T22:07:58.220Z,5.35
2023-04-27T22:10:26.317Z,5.85
2023-04-27T22:12:56.916Z,5.63
2023-04-27T22:15:26.557Z,5.15
2023-04-27T22:17:55.927Z,5.15
2023-04-27T22:20:24.779Z,4.68
2023-04-27T22:22:52.944Z,5.57
2023-04-27T22:25:21.747Z,5.70
2023-04-27T22:27:50.105Z,5.65
2023-04-27T22:30:19.565Z,5.55
2023-04-27T22:32:47.723Z,5.93
2023-04-27T22:35:25.514Z,5.72
2023-04-27T22:37:55.748Z,4.97
2023-04-27T22:40:24.331Z,5.20
2023-04-27T22:42:52.567Z,5.68
2023-04-27T22:45:22.138Z,5.63
2023-04-27T22:47:50.456Z,4.80
2023-04-27T22:50:18.662Z,6.30
2023-04-27T22:52:46.847Z,4.93
2023-04-27T22:55:15.003Z,5.97
2023-04-27T22:57:43.283Z,4.88
2023-04-27T23:00:12.511Z,5.60
2023-04-27T23:02:42.364Z,4.57
2023-04-27T23:05:12.365Z,4.30
2023-04-27T23:07:42.940Z,5.13
2023-04-27T23:10:12.980Z,3.97
2023-04-27T23:12:41.636Z,4.15
2023-04-27T23:15:10.243Z,4.07
2023-04-27T23:17:38.479Z,5.22
2023-04-27T23:20:24.114Z,5.65
2023-04-27T23:22:55.201Z,3.80
2023-04-27T23:25:23.313Z,4.85
2023-04-27T23:27:52.579Z,3.92
2023-04-27T23:30:21.761Z,4.18
2023-04-27T23:32:50.028Z,3.70
2023-04-27T23:35:19.416Z,3.85
2023-04-27T23:37:47.488Z,3.33
2023-04-27T23:40:15.706Z,5.00
2023-04-27T23:42:43.684Z,3.65
2023-04-27T23:45:12.526Z,3.55
2023-04-27T23:47:40.813Z,3.85
2023-04-27T23:50:09.550Z,3.42
2023-04-27T23:52:38.931Z,4.13
2023-04-27T23:55:08.232Z,3.30
2023-04-27T23:57:36.235Z,3.47
